• Join FlightAware (Why Join?)
  • Login
  • US Flag 
12:18PM EDT


 

Airport Tracker/Info


-or-


 

Live Flight TrackerFlight Track Log ✈ DAL488 ✈ 12-Jul-2013 ✈ MDSD / SDQ - KJFK

Flight Track Log - Related Links

Times and Time Zones

All times are in EDT time to prevent confusion due to time zone crossing. See the DAL488 flight status page for this flight to view local times or setup timezone preferences in your user account.

Time Position Orientation Groundspeed Altitude Reporting Facility
EDT Latitude Longitude Course Direction KTS MPH feet Rate Location/Type
06:55PM 18.5434 -69.7085 342° North  Level FlightAware Approximate
06:56PM 18.6570 -69.7481 342° North  Level FlightAware Approximate
06:57PM 18.7707 -69.7878 342° North  Level FlightAware Approximate
06:58PM 18.8838 -69.8273 342° North  Level FlightAware Approximate
06:59PM 18.9968 -69.8669 342° North  Level FlightAware Approximate
07:00PM 19.1099 -69.9066 342° North  Level FlightAware Approximate
07:01PM 19.2230 -69.9463 342° North  Level FlightAware Approximate
07:02PM 19.3360 -69.9860 342° North  Level FlightAware Approximate
07:03PM 19.4491 -70.0258 342° North  Level FlightAware Approximate
07:04PM 19.5638 -70.0663 342° North  Level FlightAware Approximate
07:04PM 18.8992 -69.9475 342° North 466 536 18,800  Level Miami Center
07:05PM 19.6786 -70.1068 342° North  Level FlightAware Approximate
07:05PM 19.0150 -69.9769 346° North 440 506 20,600  Level Miami Center
07:06PM 19.7934 -70.1474 342° North  Level FlightAware Approximate
07:06PM 19.1331 -70.0128 344° North 435 501 22,200  Level Miami Center
07:07PM 19.9081 -70.1881 342° North  Level FlightAware Approximate
07:07PM 19.2508 -70.0444 346° North 435 501 23,900  Level Miami Center
07:08PM 20.0229 -70.2288 342° North  Level FlightAware Approximate
07:08PM 19.3769 -70.0733 348° North 445 512 25,200  Level Miami Center
07:09PM 20.1376 -70.2696 342° North  Level FlightAware Approximate
07:09PM 19.5017 -70.1158 342° North 460 529 26,400  Level Miami Center
07:10PM 20.2523 -70.3104 342° North  Level FlightAware Approximate
07:10PM 19.6300 -70.1492 346° North 466 536 27,500  Level Miami Center
07:11PM 19.7606 -70.1825 346° North 472 543 29,200 1,500 Climbing Miami Center
07:12PM 19.8869 -70.2183 345° North 477 549 30,600 1,200 Climbing Miami Center
07:13PM 20.0133 -70.2519 346° North 477 549 31,600 960 Climbing Miami Center
07:14PM 20.1422 -70.2900 345° North 472 543 32,600 1,140 Climbing Miami Center
07:15PM 20.2706 -70.3236 346° North 477 549 33,900 660 Climbing Miami Center
07:16PM 20.4000 -70.3308 357° North 477 549 34,000  Climbing Miami Center
07:17PM 20.5283 -70.3092 North 463 533 34,000  Level Miami Center
07:18PM 20.6606 -70.2853 10° North 463 533 34,000  Level Miami Center
07:19PM 20.7886 -70.2592 11° North 468 539 34,000  Level Miami Center
07:20PM 20.8922 -70.2431 North 468 539 34,000  Level Miami Center
07:21PM 21.0453 -70.2156 10° North 463 533 34,000  Level Miami Center
07:22PM 21.1756 -70.1936 North 463 533 34,000  Level Miami Center
07:23PM 21.3017 -70.1697 10° North 463 533 34,000  Level Miami Center
07:24PM 21.4281 -70.1478 North 463 533 34,000  Level Miami Center
07:25PM 21.5561 -70.1236 10° North 463 533 34,000  Level Miami Center
07:26PM 21.6822 -70.0994 10° North 463 533 34,000 240 Level Miami Center
07:27PM 21.8083 -70.0772 North 463 533 34,500 780 Climbing Miami Center
07:28PM 21.9367 -70.0553 North 463 533 35,600 960 Climbing Miami Center
07:29PM 22.0608 -70.0308 10° North 463 533 36,500 900 Climbing Miami Center
07:30PM 22.1850 -70.0089 North 457 526 37,500 720 Climbing Miami Center
07:31PM 22.3089 -69.9867 North 452 520 38,000 240 Climbing Miami Center
07:32PM 22.4331 -69.9622 10° North 452 520 38,000  Level Miami Center
07:33PM 22.5572 -69.9400 North 452 520 38,000  Level Miami Center
07:34PM 22.6856 -69.9197 North 446 513 38,000  Level Miami Center
07:35PM 22.8058 -69.9086 North 446 513 38,000  Level Miami Center
07:36PM 22.9250 -69.9158 357° North 439 505 38,000  Level Miami Center
07:37PM 23.0464 -69.9250 356° North 439 505 38,000  Level Miami Center
07:38PM 23.1747 -69.9428 353° North 449 517 38,000  Level Miami Center
07:39PM 23.2961 -69.9544 355° North 444 511 38,000  Level Miami Center
07:40PM 23.4172 -69.9592 358° North 444 511 38,000  Level Miami Center
07:41PM 23.5411 -69.9750 353° North 444 511 38,000  Level Miami Center
07:42PM 23.6578 -69.9733 North 444 511 38,000  Level Miami Center
07:43PM 23.7817 -69.9892 353° North 438 504 38,000  Level Miami Center
07:44PM 23.9008 -69.9964 357° North 438 504 38,000  Level Miami Center
07:45PM 24.0200 -70.0011 358° North 438 504 38,000  Level Miami Center
07:46PM 24.1439 -70.0147 354° North 433 498 38,000  Level Miami Center
07:47PM 24.2650 -70.0217 357° North 433 498 38,000  Level Miami Center
07:48PM 24.3844 -70.0289 357° North 428 493 38,000  Level Miami Center
07:49PM 24.5036 -70.0339 358° North 421 484 38,000  Level Miami Center
07:50PM 24.6203 -70.0319 North 421 484 38,000  Level Miami Center
07:51PM 24.7419 -70.0433 355° North 428 493 38,000  Level Miami Center
07:52PM 24.8658 -70.0639 351° North 428 493 38,000  Level Miami Center
07:53PM 24.9803 -70.0531 North 423 487 38,000  Level Miami Center
07:54PM 25.0939 -70.0742 348° North 423 487 38,000  Level Miami Center
07:55PM 25.0000 -70.0500 348° North 447 514 38,000  Level New York Oceanic (ODAPS)
07:57PM 25.3378 -70.1237 348° North  Level FlightAware Approximate
08:04PM 26.1473 -70.3086 348° North  Level FlightAware Approximate
08:05PM 26.2629 -70.3352 348° North  Level FlightAware Approximate
08:06PM 26.3785 -70.3619 348° North  Level FlightAware Approximate
08:07PM 26.4941 -70.3886 348° North  Level FlightAware Approximate
08:08PM 26.6097 -70.4154 348° North  Level FlightAware Approximate
08:09PM 26.7253 -70.4422 348° North  Level FlightAware Approximate
08:10PM 26.8409 -70.4691 348° North  Level FlightAware Approximate
08:11PM 26.9565 -70.4961 348° North  Level FlightAware Approximate
08:12PM 27.0721 -70.5231 348° North  Level FlightAware Approximate
08:13PM 27.1877 -70.5501 348° North  Level FlightAware Approximate
08:14PM 27.3033 -70.5773 348° North  Level FlightAware Approximate
08:15PM 27.4188 -70.6045 348° North  Level FlightAware Approximate
08:16PM 27.5343 -70.6323 348° North  Level FlightAware Approximate
08:17PM 27.6497 -70.6601 348° North  Level FlightAware Approximate
08:18PM 27.7652 -70.6880 348° North  Level FlightAware Approximate
08:19PM 27.8806 -70.7160 348° North  Level FlightAware Approximate
08:20PM 27.9958 -70.7455 347° North  Level FlightAware Approximate
08:21PM 28.1109 -70.7751 347° North  Level FlightAware Approximate
08:22PM 28.2261 -70.8048 347° North  Level FlightAware Approximate
08:23PM 28.3412 -70.8345 347° North  Level FlightAware Approximate
08:24PM 28.4563 -70.8643 347° North  Level FlightAware Approximate
08:25PM 28.5714 -70.8941 347° North  Level FlightAware Approximate
08:26PM 28.6865 -70.9241 347° North  Level FlightAware Approximate
08:27PM 28.8016 -70.9540 347° North  Level FlightAware Approximate
08:28PM 28.9170 -70.9830 348° North  Level FlightAware Approximate
08:29PM 29.0324 -71.0112 348° North  Level FlightAware Approximate
08:29PM 28.9000 -70.9833 348° North 434 499 38,000  Level New York Oceanic (ODAPS)
08:30PM 29.1479 -71.0394 348° North  Level FlightAware Approximate
08:31PM 29.2644 -71.0680 348° North  Level FlightAware Approximate
08:32PM 29.3810 -71.0966 348° North  Level FlightAware Approximate
08:33PM 29.4975 -71.1253 348° North  Level FlightAware Approximate
08:34PM 29.6140 -71.1541 348° North  Level FlightAware Approximate
08:35PM 29.7305 -71.1830 348° North  Level FlightAware Approximate
08:36PM 29.9505 -71.2443 348° North 434 499 38,000  Level FlightAware Transoceanic
08:37PM 30.0672 -71.2736 348° North 434 499 38,000  Level FlightAware Transoceanic
08:38PM 30.1839 -71.3030 348° North 434 499 38,000  Level FlightAware Transoceanic
08:39PM 30.3006 -71.3325 348° North 434 499 38,000  Level FlightAware Transoceanic
08:40PM 30.4173 -71.3621 348° North 434 499 38,000  Level FlightAware Transoceanic
08:41PM 30.5339 -71.3917 348° North 434 499 38,000  Level FlightAware Transoceanic
08:42PM 30.6506 -71.4214 348° North 434 499 38,000  Level FlightAware Transoceanic
08:43PM 30.7673 -71.4511 348° North 434 499 38,000  Level FlightAware Transoceanic
08:44PM 30.8839 -71.4809 348° North 434 499 38,000  Level FlightAware Transoceanic
08:45PM 31.0005 -71.5108 348° North 434 499 38,000  Level FlightAware Transoceanic
08:46PM 31.1172 -71.5408 348° North 434 499 38,000  Level FlightAware Transoceanic
08:47PM 31.2338 -71.5709 348° North 434 499 38,000  Level FlightAware Transoceanic
08:48PM 31.3504 -71.6010 348° North 434 499 38,000  Level FlightAware Transoceanic
08:49PM 31.4670 -71.6312 348° North 434 499 38,000  Level FlightAware Transoceanic
08:50PM 31.5837 -71.6615 348° North 434 499 38,000  Level FlightAware Transoceanic
08:51PM 31.7003 -71.6918 347° North 434 499 38,000  Level FlightAware Transoceanic
08:52PM 31.8168 -71.7223 347° North 434 499 38,000  Level FlightAware Transoceanic
08:53PM 31.9334 -71.7527 347° North 434 499 38,000  Level FlightAware Transoceanic
08:54PM 32.0500 -71.7833 347° North 434 499 38,000  Level FlightAware Transoceanic
08:55PM 32.1730 -71.8164 347° North 434 499 38,000  Level FlightAware Transoceanic
08:56PM 32.2959 -71.8495 347° North 434 499 38,000  Level FlightAware Transoceanic
08:57PM 32.4188 -71.8827 347° North 434 499 38,000  Level FlightAware Transoceanic
08:58PM 32.5417 -71.9159 347° North 434 499 38,000  Level FlightAware Transoceanic
08:59PM 32.6646 -71.9493 347° North 434 499 38,000  Level FlightAware Transoceanic
09:00PM 32.7876 -71.9828 347° North 434 499 38,000  Level FlightAware Transoceanic
09:01PM 32.9104 -72.0163 347° North 434 499 38,000  Level FlightAware Transoceanic
09:02PM 33.0251 -72.0357 352° North  Level FlightAware Approximate
09:03PM 33.1397 -72.0551 352° North  Level FlightAware Approximate
09:04PM 33.2543 -72.0745 352° North  Level FlightAware Approximate
09:05PM 33.3689 -72.0940 352° North  Level FlightAware Approximate
09:06PM 33.4835 -72.1136 352° North  Level FlightAware Approximate
09:07PM 33.5980 -72.1332 352° North  Level FlightAware Approximate
09:08PM 33.7126 -72.1529 352° North  Level FlightAware Approximate
09:09PM 33.8272 -72.1726 352° North  Level FlightAware Approximate
09:10PM 33.9418 -72.1924 352° North  Level FlightAware Approximate
09:11PM 34.0564 -72.2122 352° North  Level FlightAware Approximate
09:12PM 34.1710 -72.2320 352° North  Level FlightAware Approximate
09:13PM 34.2855 -72.2520 352° North  Level FlightAware Approximate
09:13PM 34.4097 -72.3250 352° North 454 522 38,000  Level New York Center
09:14PM 34.4001 -72.2720 352° North  Level FlightAware Approximate
09:14PM 34.5261 -72.3525 349° North 448 516 38,000  Level New York Center
09:15PM 34.5147 -72.2920 352° North  Level FlightAware Approximate
09:15PM 34.6533 -72.3678 354° North 454 522 38,000  Level New York Center
09:16PM 34.6292 -72.3121 352° North  Level FlightAware Approximate
09:16PM 34.7844 -72.3806 355° North 454 522 38,000  Level New York Center
09:17PM 34.7438 -72.3322 352° North  Level FlightAware Approximate
09:17PM 34.9136 -72.3933 355° North 460 529 38,000  Level New York Center
09:18PM 34.8583 -72.3525 352° North  Level FlightAware Approximate
09:18PM 35.0428 -72.4089 354° North 460 529 38,000  Level New York Center
09:19PM 35.1764 -72.4064 North 465 535 38,000  Level New York Center
09:20PM 35.2994 -72.4092 359° North 458 527 38,000  Level New York Center
09:21PM 35.4267 -72.4092 360° North 458 527 38,000  Level New York Center
09:22PM 35.5519 -72.4069 North 453 521 38,000  Level New York Center
09:23PM 35.6792 -72.4069 360° North 453 521 38,000  Level New York Center
09:24PM 35.8064 -72.4022 North 453 521 38,000  Level New York Center
09:25PM 35.9358 -72.3997 North 445 512 38,000  Level New York Center
09:26PM 36.0567 -72.4022 359° North 440 506 38,000  Level New York Center
09:27PM 36.1819 -72.4000 North 440 506 38,000  Level New York Center
09:28PM 36.3031 -72.4000 360° North 440 506 38,000  Level New York Center
09:29PM 36.4344 -72.3950 North 447 514 38,000  Level New York Center
09:30PM 36.5617 -72.3978 359° North 445 512 38,000  Level New York Center
09:31PM 36.6847 -72.3956 North 451 519 38,000  Level New York Center
09:32PM 36.8081 -72.3928 North 446 513 38,000  Level New York Center
09:33PM 36.9333 -72.3750 North 446 513 38,000  Level New York Center
09:34PM 37.0608 -72.3569 North 446 513 38,000  Level New York Center
09:35PM 37.1822 -72.3386 North 446 513 38,000  Level New York Center
09:36PM 37.3181 -72.3233 North 451 519 38,000  Level New York Center
09:37PM 37.4372 -72.3047 North 445 512 38,000  Level New York Center
09:38PM 37.5644 -72.2867 North 445 512 38,000  Level New York Center
09:39PM 37.6669 -72.2756 North 435 501 38,000  Level New York Center
09:40PM 37.7850 -72.3358 338° Northwest 428 493 38,000  Level New York Center
09:41PM 37.8967 -72.4067 333° Northwest 435 501 38,000  Level New York Center
09:42PM 38.0103 -72.4858 331° Northwest 440 506 38,000  Level New York Center
09:43PM 38.1239 -72.5569 334° Northwest 450 518 38,000 -120 Level New York Center
09:44PM 38.2353 -72.6314 332° Northwest 455 524 37,800 -660 Descending New York Center
09:45PM 38.3569 -72.7217 330° Northwest 455 524 36,700 -1,020 Descending New York Center
09:46PM 38.4767 -72.7967 334° Northwest 455 524 35,800 -1,020 Descending New York Center
09:47PM 38.5939 -72.8769 332° Northwest 465 535 34,800 -1,920 Descending New York Center
09:48PM 38.7031 -72.9522 332° Northwest 471 542 32,100 -3,060 Descending New York Center
09:49PM 38.8225 -73.0303 333° Northwest 477 549 28,600 -3,360 Descending New York Center
09:50PM 38.9522 -73.1200 332° Northwest 477 549 25,400 -3,000 Descending New York Center
09:51PM 39.0631 -73.1986 331° Northwest 466 536 22,700 -2,700 Descending New York Center
09:52PM 39.1722 -73.2719 332° Northwest 454 522 20,200 -2,460 Descending New York Center
09:53PM 39.2789 -73.3456 332° Northwest 443 510 17,800 -2,580 Descending New York Center
09:54PM 39.3775 -73.4161 331° Northwest 423 487 15,000 -2,580 Descending New York Center
09:55PM 39.4781 -73.4847 332° Northwest 411 473 12,700 -2,280 Descending New York Center
09:56PM 39.5764 -73.5531 332° Northwest 404 465 10,600 -1,440 Descending New York Center
09:57PM 39.6667 -73.6158 332° Northwest 387 445 9,900 -360 Descending New York Center
09:58PM 39.7589 -73.6819 331° Northwest 376 433 9,900  Level New York Center
09:59PM 39.8489 -73.7450 332° Northwest 376 433 9,900 -120 Level New York Center
10:00PM 39.9289 -73.8000 332° Northwest 364 419 9,700 -480 Descending New York Center
10:01PM 40.0044 -73.8547 331° Northwest 332 382 9,000 -840 Descending New York Center
10:02PM 40.0706 -73.8033 31° Northeast 250 288 8,000 -1,320 Descending New York Center
10:03PM 40.1253 -73.7028 55° Northeast 275 316 6,500 -1,440 Descending New York Center
10:04PM 40.1897 -73.7028 360° North 240 276 5,200 -1,260 Descending New York Center
10:05PM 40.2547 -73.7761 319° Northwest 262 302 4,000 -600 Descending New York Center
10:06PM 40.3053 -73.8328 319° Northwest 271 312 4,100  Climbing New York Center
10:07PM 40.3181 -73.9042 283° West 189 217 4,000 -540 Descending New York Center
10:08PM 40.3436 -73.9597 301° West 189 217 3,100 -960 Descending New York Center
10:09PM 40.4003 -73.9461 10° North 141 162 2,100 -600 Descending New York Center
10:10PM 40.4383 -73.9178 30° Northeast 146 168 2,000 -60 Descending New York Center
10:11PM 40.4831 -73.8817 32° Northeast 163 188 2,000  Level New York Center
10:12PM 40.5172 -73.8586 27° Northeast 163 188 2,000  Level New York Center